Time;durP1;ratioP1;P1;durP2;ratioP2;P2;SDS_P1;SDS_P2;PMS_P1;PMS_P2;Temp;Humidity;BMP_temperature;BMP_pressure;BME280_temperature;BME280_humidity;BME280_pressure;Samples;Min_cycle;Max_cycle;Signal;HPM_P1;HPM_P2
2021/05/20 00:00:09;;;;;;;10.00;6.82;;;13.70;75.10;;;;;;5054343;28;20025;-79
2021/05/20 00:02:36;;;;;;;11.30;8.52;;;13.70;75.10;;;;;;5053742;28;20855;-78
2021/05/20 00:05:02;;;;;;;11.43;8.10;;;13.70;75.10;;;;;;5058771;28;20036;-78
2021/05/20 00:07:28;;;;;;;12.50;8.18;;;13.70;75.20;;;;;;5053047;28;20140;-78
2021/05/20 00:09:53;;;;;;;13.02;8.85;;;13.70;75.20;;;;;;5051823;28;20132;-78
2021/05/20 00:12:19;;;;;;;10.55;7.90;;;13.70;75.20;;;;;;5053297;28;20110;-78
2021/05/20 00:14:45;;;;;;;10.30;7.70;;;13.70;75.20;;;;;;5059128;28;20035;-78
2021/05/20 00:17:11;;;;;;;9.02;7.45;;;13.70;75.20;;;;;;5051955;28;20022;-78
2021/05/20 00:19:36;;;;;;;11.07;7.90;;;13.70;75.20;;;;;;5059285;28;20532;-79
2021/05/20 00:22:02;;;;;;;11.70;8.40;;;13.60;75.10;;;;;;5052582;28;20131;-78
2021/05/20 00:24:28;;;;;;;10.18;8.52;;;13.60;75.10;;;;;;5053115;28;20091;-78
2021/05/20 00:26:54;;;;;;;12.50;8.02;;;13.60;75.10;;;;;;5091298;28;20062;-79
2021/05/20 00:29:19;;;;;;;14.23;9.82;;;13.60;75.20;;;;;;5049803;28;20040;-78
2021/05/20 00:31:45;;;;;;;13.05;10.07;;;13.60;75.20;;;;;;5054491;28;20119;-78
2021/05/20 00:34:11;;;;;;;11.73;9.52;;;13.60;75.30;;;;;;5079379;28;20033;-78
2021/05/20 00:36:36;;;;;;;11.38;8.75;;;13.50;75.90;;;;;;5078566;28;20082;-78
2021/05/20 00:39:03;;;;;;;12.63;10.10;;;13.50;75.40;;;;;;5067986;28;20055;-78
2021/05/20 00:41:29;;;;;;;12.98;9.85;;;13.50;75.40;;;;;;5060798;28;20033;-78
2021/05/20 00:43:55;;;;;;;12.30;9.60;;;13.50;75.40;;;;;;5053007;28;20132;-78
2021/05/20 00:46:20;;;;;;;12.65;9.60;;;13.50;75.40;;;;;;5052261;28;20435;-77
2021/05/20 00:48:46;;;;;;;13.15;10.05;;;13.50;75.40;;;;;;5048514;28;20131;-78
2021/05/20 00:51:12;;;;;;;14.10;10.88;;;13.50;75.50;;;;;;5051195;28;20099;-78
2021/05/20 00:53:37;;;;;;;14.43;10.48;;;13.40;75.40;;;;;;5062498;28;20029;-78
2021/05/20 00:56:04;;;;;;;14.23;10.55;;;13.40;75.30;;;;;;5042190;28;20029;-78
2021/05/20 00:58:30;;;;;;;13.85;11.23;;;13.40;75.40;;;;;;5069874;28;20043;-78
2021/05/20 01:00:55;;;;;;;17.48;12.95;;;13.40;75.50;;;;;;5047457;28;20423;-78
2021/05/20 01:03:22;;;;;;;17.55;13.18;;;13.40;75.60;;;;;;5068788;28;20028;-78
2021/05/20 01:05:52;;;;;;;18.38;13.75;;;13.40;75.70;;;;;;5065663;28;20132;-78
2021/05/20 01:08:17;;;;;;;19.33;13.68;;;13.40;75.90;;;;;;5058977;28;20521;-77
2021/05/20 01:10:43;;;;;;;19.65;14.38;;;13.40;76.00;;;;;;5036402;28;20076;-78
2021/05/20 01:13:09;;;;;;;21.52;14.90;;;13.40;76.10;;;;;;5069629;28;20414;-78
2021/05/20 01:15:34;;;;;;;23.50;18.05;;;13.50;76.30;;;;;;5049773;28;20419;-79
2021/05/20 01:18:04;;;;;;;20.55;16.52;;;13.40;76.30;;;;;;5034054;28;20424;-78
2021/05/20 01:20:32;;;;;;;24.10;18.25;;;13.40;77.10;;;;;;5056852;28;20505;-78
2021/05/20 01:23:11;;;;;;;26.60;17.85;;;13.40;76.50;;;;;;5064305;28;20035;-78
2021/05/20 01:25:38;;;;;;;19.77;16.50;;;13.40;76.60;;;;;;5049733;28;20482;-78
2021/05/20 01:28:07;;;;;;;22.20;17.65;;;13.40;76.60;;;;;;5071688;28;20032;-78
2021/05/20 01:30:37;;;;;;;23.30;18.27;;;13.40;76.70;;;;;;5054381;28;20029;-78
2021/05/20 01:33:03;;;;;;;23.52;17.80;;;13.40;76.80;;;;;;5053911;28;20033;-78
2021/05/20 01:35:28;;;;;;;21.90;19.13;;;13.40;76.80;;;;;;5063651;28;20510;-78
2021/05/20 01:40:54;;;;;;;23.95;19.58;;;13.40;77.30;;;;;;5056177;28;20485;-78
2021/05/20 01:43:20;;;;;;;24.45;18.15;;;13.40;77.20;;;;;;5061254;28;20102;-79
2021/05/20 01:45:48;;;;;;;26.83;18.92;;;13.40;77.20;;;;;;5058782;28;20115;-79
2021/05/20 01:48:14;;;;;;;26.75;19.95;;;13.40;77.40;;;;;;5058002;28;20453;-79
2021/05/20 01:50:40;;;;;;;26.50;20.42;;;13.40;77.50;;;;;;5050804;28;20028;-79
2021/05/20 01:53:05;;;;;;;27.80;20.95;;;13.40;77.60;;;;;;5054512;28;20090;-78
2021/05/20 01:55:31;;;;;;;30.23;24.25;;;13.40;77.60;;;;;;5065956;28;20029;-79
2021/05/20 01:57:57;;;;;;;28.58;22.05;;;13.40;77.70;;;;;;5062751;28;20035;-78
2021/05/20 02:00:23;;;;;;;32.92;24.00;;;13.40;77.80;;;;;;5044211;28;20064;-78
2021/05/20 02:02:48;;;;;;;31.55;22.42;;;13.40;77.80;;;;;;5083000;28;20127;-79
2021/05/20 02:05:14;;;;;;;32.50;23.55;;;13.40;77.90;;;;;;5057651;28;20086;-79
2021/05/20 02:07:39;;;;;;;31.95;23.70;;;13.40;78.00;;;;;;5051803;28;20097;-79
2021/05/20 02:10:05;;;;;;;28.70;20.33;;;13.40;78.10;;;;;;5057677;28;20061;-78
2021/05/20 02:12:31;;;;;;;29.95;23.25;;;13.40;78.30;;;;;;5050087;28;20072;-79
2021/05/20 02:14:58;;;;;;;29.98;21.95;;;13.40;78.40;;;;;;5040848;28;20055;-78
2021/05/20 02:17:23;;;;;;;30.08;21.15;;;13.40;78.60;;;;;;5072033;28;20032;-78
2021/05/20 02:19:49;;;;;;;34.05;23.77;;;13.30;78.60;;;;;;5068536;28;20109;-78
2021/05/20 02:22:14;;;;;;;32.15;22.42;;;13.30;78.80;;;;;;5071964;28;20788;-78
2021/05/20 02:24:40;;;;;;;35.40;24.98;;;13.30;78.90;;;;;;5050158;28;20040;-79
2021/05/20 02:27:06;;;;;;;31.67;22.23;;;13.30;79.00;;;;;;5057585;28;20044;-79
2021/05/20 02:29:31;;;;;;;36.78;25.05;;;13.40;79.10;;;;;;5041740;28;20025;-79
2021/05/20 02:31:57;;;;;;;38.22;26.10;;;13.30;79.10;;;;;;5038845;28;20110;-78
2021/05/20 02:34:23;;;;;;;38.55;26.08;;;13.30;79.20;;;;;;5053888;28;20029;-79
2021/05/20 02:36:48;;;;;;;37.80;25.13;;;13.30;79.30;;;;;;5063061;28;20040;-78
2021/05/20 02:39:14;;;;;;;38.38;24.52;;;13.30;79.50;;;;;;5036797;28;20036;-78
2021/05/20 02:41:39;;;;;;;35.08;23.50;;;13.30;79.60;;;;;;5072037;28;20032;-79
2021/05/20 02:44:05;;;;;;;40.92;27.25;;;13.30;79.60;;;;;;5061787;28;20039;-79
2021/05/20 02:46:31;;;;;;;36.95;26.00;;;13.30;79.60;;;;;;5056242;28;20041;-78
2021/05/20 02:48:56;;;;;;;34.40;23.60;;;13.30;79.70;;;;;;5051382;28;20189;-78
2021/05/20 02:51:22;;;;;;;41.60;26.40;;;13.40;79.80;;;;;;5059830;28;20032;-79
2021/05/20 02:53:48;;;;;;;38.45;25.52;;;13.40;79.80;;;;;;5048657;28;20037;-79
2021/05/20 02:56:14;;;;;;;41.97;28.17;;;13.40;80.00;;;;;;5051115;28;20036;-79
2021/05/20 02:58:39;;;;;;;37.25;24.75;;;13.40;80.00;;;;;;5049529;28;20493;-79
2021/05/20 03:01:05;;;;;;;34.35;23.80;;;13.40;80.10;;;;;;5062053;28;20056;-79
2021/05/20 03:03:31;;;;;;;35.28;23.60;;;13.40;80.00;;;;;;5051642;28;20060;-79
2021/05/20 03:05:58;;;;;;;38.40;25.90;;;13.40;80.10;;;;;;5055507;28;20056;-79
2021/05/20 03:08:24;;;;;;;37.70;24.25;;;13.40;80.10;;;;;;5050630;28;20039;-78
2021/05/20 03:10:50;;;;;;;34.03;23.17;;;13.50;80.00;;;;;;5048589;28;20048;-79
2021/05/20 03:13:15;;;;;;;36.83;24.63;;;13.50;80.00;;;;;;5051992;28;20029;-78
2021/05/20 03:15:41;;;;;;;32.33;21.20;;;13.60;80.00;;;;;;5052352;28;20028;-80
2021/05/20 03:18:06;;;;;;;34.13;21.10;;;13.60;80.00;;;;;;5063811;28;20633;-80
2021/05/20 03:20:33;;;;;;;31.65;20.00;;;13.60;80.00;;;;;;5047506;28;20044;-80
2021/05/20 03:22:58;;;;;;;30.55;18.45;;;13.50;79.90;;;;;;5038096;28;20032;-80
2021/05/20 03:25:24;;;;;;;35.28;20.00;;;13.60;79.90;;;;;;5049400;28;20041;-79
2021/05/20 03:27:50;;;;;;;30.92;18.58;;;13.50;80.00;;;;;;5079821;28;20033;-80
2021/05/20 03:30:16;;;;;;;31.98;19.50;;;13.50;80.10;;;;;;5049489;28;20044;-80
2021/05/20 03:32:42;;;;;;;32.05;21.20;;;13.50;80.20;;;;;;5049938;28;20044;-80
2021/05/20 03:35:09;;;;;;;32.95;20.55;;;13.50;80.20;;;;;;5050554;28;20037;-80
2021/05/20 03:37:36;;;;;;;37.03;22.38;;;13.50;80.20;;;;;;5044356;28;20033;-80
2021/05/20 03:40:04;;;;;;;33.97;22.38;;;13.50;80.10;;;;;;5049950;28;20044;-80
2021/05/20 03:42:29;;;;;;;36.22;21.73;;;13.50;80.10;;;;;;5054746;28;20037;-80
2021/05/20 03:44:55;;;;;;;31.00;21.02;;;13.50;80.00;;;;;;5046955;28;20032;-80
2021/05/20 03:47:21;;;;;;;35.30;22.83;;;13.50;79.90;;;;;;5050079;28;20033;-79
2021/05/20 03:49:47;;;;;;;34.03;21.17;;;13.50;80.00;;;;;;5048052;28;20124;-79
2021/05/20 03:52:12;;;;;;;33.47;21.35;;;13.50;80.00;;;;;;5051394;28;20032;-80
2021/05/20 03:54:42;;;;;;;34.67;22.38;;;13.60;79.90;;;;;;5033939;28;20496;-80
2021/05/20 03:57:08;;;;;;;33.55;22.20;;;13.50;79.80;;;;;;5064109;28;20083;-80
2021/05/20 03:59:33;;;;;;;28.83;19.27;;;13.60;79.80;;;;;;5068493;28;20438;-80
2021/05/20 04:01:59;;;;;;;33.97;22.48;;;13.60;79.70;;;;;;5064065;28;20055;-79
2021/05/20 04:04:25;;;;;;;31.13;21.70;;;13.60;79.60;;;;;;5088920;28;20056;-80
2021/05/20 04:06:50;;;;;;;27.10;18.45;;;13.60;79.40;;;;;;5073987;28;20457;-79
2021/05/20 04:09:16;;;;;;;29.05;18.45;;;13.60;79.20;;;;;;5049231;28;20039;-80
2021/05/20 04:11:41;;;;;;;29.63;20.13;;;13.60;79.20;;;;;;5050063;28;20045;-80
2021/05/20 04:14:07;;;;;;;27.63;18.02;;;13.60;79.30;;;;;;5062174;28;20431;-80
2021/05/20 04:16:33;;;;;;;29.13;19.48;;;13.50;79.20;;;;;;5063703;28;20491;-80
2021/05/20 04:19:01;;;;;;;28.92;19.67;;;13.60;79.20;;;;;;5051717;28;20414;-81
2021/05/20 04:21:27;;;;;;;33.00;22.58;;;13.60;79.10;;;;;;5068682;28;20022;-80
2021/05/20 04:23:52;;;;;;;30.15;18.70;;;13.60;79.00;;;;;;5048647;28;20044;-81
2021/05/20 04:26:19;;;;;;;34.13;20.70;;;13.70;78.90;;;;;;5051663;28;20033;-81
2021/05/20 04:28:48;;;;;;;32.55;19.25;;;13.60;78.90;;;;;;5052187;28;20127;-80
2021/05/20 04:31:14;;;;;;;30.88;20.75;;;13.60;78.90;;;;;;5054691;28;20033;-80
2021/05/20 04:33:41;;;;;;;29.77;19.33;;;13.70;78.90;;;;;;5071232;28;20028;-80
2021/05/20 04:36:07;;;;;;;30.52;19.65;;;13.70;78.90;;;;;;5054760;28;20033;-80
2021/05/20 04:38:33;;;;;;;31.70;21.35;;;13.70;78.80;;;;;;5051488;28;20053;-80
2021/05/20 04:40:58;;;;;;;28.65;18.55;;;13.70;78.70;;;;;;5050880;28;20129;-80
2021/05/20 04:43:24;;;;;;;30.17;18.77;;;13.70;78.80;;;;;;5051937;28;20040;-80
2021/05/20 04:45:50;;;;;;;29.70;18.75;;;13.70;78.80;;;;;;5033436;28;20037;-80
2021/05/20 04:48:16;;;;;;;32.03;20.38;;;13.60;78.70;;;;;;5054817;28;20427;-80
2021/05/20 04:50:41;;;;;;;28.60;17.50;;;13.60;78.70;;;;;;5064719;28;20025;-79
2021/05/20 04:53:10;;;;;;;33.20;20.38;;;13.70;78.60;;;;;;5073739;28;20028;-80
2021/05/20 04:55:36;;;;;;;33.95;20.38;;;13.60;78.50;;;;;;5061983;28;20132;-79
2021/05/20 04:58:02;;;;;;;31.63;20.27;;;13.70;78.70;;;;;;5069863;28;20497;-79
2021/05/20 05:00:28;;;;;;;27.40;18.02;;;13.60;78.60;;;;;;5046807;28;20025;-80
2021/05/20 05:02:54;;;;;;;32.55;19.25;;;13.60;78.60;;;;;;5056509;28;20031;-77
2021/05/20 05:05:20;;;;;;;36.58;23.27;;;13.70;78.80;;;;;;5053651;28;20049;-77
2021/05/20 05:07:45;;;;;;;30.42;20.15;;;13.70;78.80;;;;;;5057208;28;20186;-78
2021/05/20 05:10:12;;;;;;;34.33;22.42;;;13.70;78.60;;;;;;5049853;28;20087;-78
2021/05/20 05:12:37;;;;;;;33.65;20.58;;;13.70;78.70;;;;;;5052439;28;20053;-78
2021/05/20 05:15:05;;;;;;;37.50;23.45;;;13.70;78.70;;;;;;5051528;28;20061;-79
2021/05/20 05:17:31;;;;;;;33.38;23.23;;;13.80;78.80;;;;;;5047210;28;20033;-79
2021/05/20 05:19:56;;;;;;;32.47;21.27;;;13.80;78.80;;;;;;5058203;28;20032;-78
2021/05/20 05:22:22;;;;;;;31.60;19.73;;;13.80;78.80;;;;;;5074059;28;20182;-79
2021/05/20 05:24:48;;;;;;;35.83;22.83;;;13.90;78.80;;;;;;5065146;28;20029;-78
2021/05/20 05:27:15;;;;;;;28.90;19.05;;;13.90;78.80;;;;;;5084363;28;20455;-79
2021/05/20 05:29:41;;;;;;;31.25;20.95;;;14.00;78.70;;;;;;5051521;28;20025;-78
2021/05/20 05:32:07;;;;;;;34.15;21.75;;;14.00;78.60;;;;;;5052499;28;20024;-79
2021/05/20 05:34:33;;;;;;;33.20;22.35;;;14.00;78.50;;;;;;5069720;28;20032;-79
2021/05/20 05:37:01;;;;;;;33.38;22.08;;;14.10;78.50;;;;;;5050989;28;20060;-78
2021/05/20 05:39:26;;;;;;;31.85;20.55;;;14.10;78.30;;;;;;5084888;28;20032;-78
2021/05/20 05:41:52;;;;;;;34.88;22.85;;;14.20;78.20;;;;;;5055671;28;20390;-78
2021/05/20 05:44:18;;;;;;;32.42;22.58;;;14.20;78.10;;;;;;5070334;28;20028;-79
2021/05/20 05:46:44;;;;;;;32.65;20.15;;;14.30;78.10;;;;;;5063265;28;20037;-78
2021/05/20 05:49:20;;;;;;;36.20;23.77;;;14.30;77.90;;;;;;5065517;28;20115;-79
2021/05/20 05:51:50;;;;;;;35.53;23.20;;;14.40;77.80;;;;;;5068660;28;20032;-79
2021/05/20 05:54:16;;;;;;;32.55;23.20;;;14.50;77.60;;;;;;5053182;28;20107;-79
2021/05/20 05:56:42;;;;;;;31.88;20.92;;;14.50;77.30;;;;;;5054348;28;20041;-78
2021/05/20 05:59:07;;;;;;;33.17;22.52;;;14.60;77.00;;;;;;5063400;28;20098;-78
2021/05/20 06:01:34;;;;;;;34.95;22.13;;;14.70;76.70;;;;;;5066445;28;20055;-79
2021/05/20 06:04:00;;;;;;;35.10;23.58;;;14.70;76.50;;;;;;5069439;28;20490;-79
2021/05/20 06:06:26;;;;;;;32.60;21.00;;;14.70;76.40;;;;;;5047744;28;20045;-78
2021/05/20 06:08:52;;;;;;;41.58;24.90;;;14.70;76.30;;;;;;5048335;28;20668;-78
2021/05/20 06:11:17;;;;;;;34.42;22.92;;;14.70;76.10;;;;;;5044463;28;20061;-78
2021/05/20 06:13:43;;;;;;;36.13;24.80;;;14.80;76.40;;;;;;5053971;28;20033;-77
2021/05/20 06:16:09;;;;;;;32.67;20.52;;;14.90;76.00;;;;;;5051550;28;20040;-78
2021/05/20 06:18:34;;;;;;;34.30;21.05;;;15.00;76.00;;;;;;5052302;28;20481;-79
2021/05/20 06:21:00;;;;;;;33.85;21.75;;;15.10;76.30;;;;;;5053719;28;20427;-79
2021/05/20 06:23:26;;;;;;;33.80;22.60;;;15.10;75.20;;;;;;5067212;28;20034;-80
2021/05/20 06:25:51;;;;;;;34.50;20.38;;;15.10;75.10;;;;;;5081910;28;20470;-79
2021/05/20 06:28:18;;;;;;;31.27;20.63;;;15.10;75.20;;;;;;5056085;28;20040;-78
2021/05/20 06:30:43;;;;;;;30.73;20.70;;;15.20;75.00;;;;;;5045448;28;20033;-80
2021/05/20 06:33:09;;;;;;;29.63;19.50;;;15.20;75.00;;;;;;5051838;28;20040;-80
2021/05/20 06:35:34;;;;;;;28.45;18.92;;;15.40;74.80;;;;;;5050314;28;20037;-80
2021/05/20 06:38:01;;;;;;;29.83;21.10;;;15.40;74.60;;;;;;5052713;28;20041;-78
2021/05/20 06:40:26;;;;;;;31.85;21.38;;;15.50;74.30;;;;;;5057903;28;20478;-79
2021/05/20 06:42:52;;;;;;;29.55;21.50;;;15.50;74.10;;;;;;5051164;28;20024;-79
2021/05/20 06:45:18;;;;;;;27.85;19.00;;;15.60;74.10;;;;;;5061600;28;20051;-78
2021/05/20 06:47:43;;;;;;;30.17;19.25;;;15.60;74.10;;;;;;5053599;28;20029;-79
2021/05/20 06:50:17;;;;;;;29.15;19.88;;;15.60;74.00;;;;;;5050939;28;20185;-78
2021/05/20 06:52:43;;;;;;;32.78;20.90;;;15.70;73.60;;;;;;5064128;28;20021;-80
2021/05/20 06:55:09;;;;;;;29.67;19.75;;;15.90;73.10;;;;;;5042238;28;20566;-79
2021/05/20 07:00:19;;;;;;;28.55;19.55;;;16.00;72.60;;;;;;5052791;28;20478;-78
2021/05/20 07:02:46;;;;;;;29.42;19.17;;;16.10;72.20;;;;;;5061862;28;20068;-79
2021/05/20 07:05:13;;;;;;;30.05;18.45;;;16.10;72.10;;;;;;5047054;28;20028;-79
2021/05/20 07:07:38;;;;;;;32.20;19.23;;;16.10;71.80;;;;;;5056867;28;20018;-78
2021/05/20 07:10:06;;;;;;;34.15;20.30;;;16.20;71.30;;;;;;5063071;28;20036;-80
2021/05/20 07:12:47;;;;;;;30.88;19.20;;;16.20;70.60;;;;;;5062447;28;20060;-78
2021/05/20 07:15:22;;;;;;;32.90;20.55;;;16.20;70.40;;;;;;5065130;28;20396;-77
2021/05/20 07:17:51;;;;;;;28.73;19.95;;;16.30;70.50;;;;;;5069488;28;20043;-78
2021/05/20 07:20:17;;;;;;;32.45;22.15;;;16.40;70.20;;;;;;5069823;28;20028;-76
2021/05/20 07:22:43;;;;;;;32.58;22.45;;;16.50;70.00;;;;;;5086948;28;20028;-78
2021/05/20 07:25:09;;;;;;;40.03;25.05;;;16.60;70.10;;;;;;5088055;28;20032;-76
2021/05/20 07:28:01;;;;;;;34.97;24.15;;;16.70;69.60;;;;;;5082608;28;20482;-77
2021/05/20 07:33:15;;;;;;;41.33;27.45;;;16.80;69.00;;;;;;5086943;28;20036;-77
2021/05/20 07:35:49;;;;;;;46.25;30.40;;;16.80;69.40;;;;;;5085689;28;20485;-78
2021/05/20 07:38:15;;;;;;;44.75;30.88;;;16.70;69.40;;;;;;5069812;28;20074;-78
2021/05/20 07:40:43;;;;;;;46.60;30.77;;;16.80;69.70;;;;;;5051046;28;20490;-78
2021/05/20 07:43:09;;;;;;;48.65;31.45;;;16.70;70.00;;;;;;5062798;28;20182;-79
2021/05/20 07:45:35;;;;;;;42.80;29.15;;;16.80;70.20;;;;;;5047208;28;20505;-78
2021/05/20 07:48:01;;;;;;;52.90;35.30;;;16.80;70.40;;;;;;5053075;28;20025;-78
2021/05/20 07:50:27;;;;;;;49.53;33.70;;;16.80;70.10;;;;;;5060384;28;20029;-78
2021/05/20 07:52:53;;;;;;;49.55;32.53;;;16.70;70.20;;;;;;5049526;28;20036;-79
2021/05/20 07:55:19;;;;;;;43.70;30.83;;;16.80;70.30;;;;;;5049518;28;20593;-79
2021/05/20 07:57:45;;;;;;;47.15;32.80;;;16.90;70.20;;;;;;5060910;28;20083;-80
2021/05/20 08:00:15;;;;;;;51.10;34.22;;;17.00;69.50;;;;;;5077382;28;20066;-80
2021/05/20 08:02:52;;;;;;;44.90;31.67;;;17.00;68.90;;;;;;5035354;28;20040;-80
2021/05/20 08:05:25;;;;;;;45.40;31.55;;;17.00;68.90;;;;;;5053636;28;20123;-79
2021/05/20 08:13:04;;;;;;;41.88;30.60;;;17.20;68.60;;;;;;5055941;28;20132;-80
2021/05/20 08:15:30;;;;;;;48.60;32.47;;;17.40;67.70;;;;;;5067997;28;20128;-79
2021/05/20 08:17:55;;;;;;;46.03;31.90;;;17.50;67.10;;;;;;5052750;28;20040;-78
2021/05/20 08:20:21;;;;;;;43.83;30.33;;;17.60;67.00;;;;;;5091613;28;20029;-79
2021/05/20 08:22:47;;;;;;;42.20;27.90;;;17.50;67.00;;;;;;5071722;28;20048;-79
2021/05/20 08:25:12;;;;;;;40.47;28.00;;;17.60;67.00;;;;;;5053950;28;20039;-79
2021/05/20 08:27:38;;;;;;;38.33;26.85;;;17.80;66.40;;;;;;5068290;28;20428;-78
2021/05/20 08:30:06;;;;;;;40.47;28.08;;;18.10;65.80;;;;;;5038692;28;20043;-81
2021/05/20 08:32:32;;;;;;;40.17;28.10;;;18.40;64.80;;;;;;5055965;28;20029;-79
2021/05/20 08:34:57;;;;;;;37.28;25.88;;;18.60;64.20;;;;;;5085412;28;20040;-80
2021/05/20 08:37:23;;;;;;;36.97;26.13;;;18.90;63.60;;;;;;5062463;28;20039;-80
2021/05/20 08:39:49;;;;;;;38.47;27.85;;;18.90;63.30;;;;;;5062089;28;20463;-79
2021/05/20 08:42:15;;;;;;;37.13;25.88;;;18.90;63.20;;;;;;5077283;28;20189;-78
2021/05/20 08:44:41;;;;;;;40.30;26.73;;;18.80;63.50;;;;;;5058055;28;20025;-79
2021/05/20 08:47:06;;;;;;;36.65;26.27;;;18.80;63.80;;;;;;5067170;28;20060;-79
2021/05/20 08:49:32;;;;;;;42.22;28.70;;;18.90;63.50;;;;;;5084628;28;20056;-78
2021/05/20 08:51:59;;;;;;;37.55;27.30;;;19.00;63.20;;;;;;5051936;28;20025;-79
2021/05/20 08:54:26;;;;;;;38.13;26.75;;;18.90;62.60;;;;;;5058928;28;20531;-78
2021/05/20 08:57:10;;;;;;;36.75;24.33;;;18.80;62.20;;;;;;5074795;28;20123;-78
2021/05/20 08:59:40;;;;;;;38.05;24.38;;;18.80;62.30;;;;;;5060906;28;20201;-78
2021/05/20 09:02:06;;;;;;;35.67;26.95;;;18.70;62.40;;;;;;5074933;28;20150;-78
2021/05/20 09:04:32;;;;;;;32.92;23.02;;;18.60;61.70;;;;;;5068497;28;20025;-79
2021/05/20 09:07:04;;;;;;;31.70;22.33;;;18.50;62.90;;;;;;5057870;28;20037;-80
2021/05/20 09:09:37;;;;;;;28.33;20.98;;;18.60;63.50;;;;;;5052693;28;20036;-79
2021/05/20 09:12:03;;;;;;;27.42;20.52;;;19.00;62.10;;;;;;5067673;28;20084;-80
2021/05/20 09:14:31;;;;;;;27.58;20.67;;;19.30;60.50;;;;;;5050334;28;20025;-80
2021/05/20 09:17:14;;;;;;;25.92;19.17;;;19.40;59.80;;;;;;5064557;28;20021;-80
2021/05/20 09:19:42;;;;;;;;;;;19.50;59.80;;;;;;5068053;28;20024;-81
2021/05/20 09:22:13;;;;;;;27.30;20.75;;;19.80;59.60;;;;;;5051598;28;19917;-80
2021/05/20 09:24:47;;;;;;;28.40;21.33;;;19.80;59.50;;;;;;5063577;28;20024;-80
2021/05/20 09:27:34;;;;;;;25.35;19.98;;;19.80;59.50;;;;;;5058679;28;20171;-80
2021/05/20 09:30:18;;;;;;;25.08;20.30;;;19.90;59.20;;;;;;5067936;28;20027;-80
2021/05/20 09:32:52;;;;;;;26.13;19.25;;;19.80;57.50;;;;;;5061959;28;20099;-80
2021/05/20 09:35:21;;;;;;;22.33;18.98;;;19.80;58.00;;;;;;5067418;28;20029;-80
2021/05/20 09:37:55;;;;;;;24.10;19.45;;;19.80;58.00;;;;;;5054538;28;20094;-79
2021/05/20 09:40:24;;;;;;;24.95;18.92;;;19.80;57.20;;;;;;5067184;28;20064;-80
2021/05/20 09:42:50;;;;;;;24.70;18.45;;;19.80;57.60;;;;;;5059171;28;20094;-80
2021/05/20 09:45:22;;;;;;;28.38;21.02;;;19.80;58.10;;;;;;5063026;28;20459;-79
2021/05/20 09:47:48;;;;;;;27.88;21.02;;;19.60;57.70;;;;;;5055983;28;20028;-80
2021/05/20 09:50:20;;;;;;;26.55;20.70;;;19.40;59.00;;;;;;5066224;28;20025;-80
2021/05/20 09:52:48;;;;;;;24.77;19.58;;;19.20;59.50;;;;;;5065039;28;20039;-79
2021/05/20 09:55:26;;;;;;;24.65;18.52;;;19.10;59.90;;;;;;5055471;28;20044;-80
2021/05/20 09:57:54;;;;;;;22.60;16.60;;;19.10;59.80;;;;;;5057743;28;20099;-80
2021/05/20 10:00:24;;;;;;;20.40;16.23;;;19.30;59.80;;;;;;5085067;28;20043;-81
2021/05/20 10:03:06;;;;;;;20.25;15.27;;;19.60;59.30;;;;;;5059954;28;20028;-82
2021/05/20 10:05:34;;;;;;;19.75;14.32;;;20.00;58.50;;;;;;5064104;28;20104;-82
2021/05/20 10:08:03;;;;;;;16.60;13.45;;;20.30;58.00;;;;;;5058975;28;20058;-82
2021/05/20 10:10:29;;;;;;;15.48;13.23;;;20.70;57.60;;;;;;5063382;28;20025;-81
2021/05/20 10:12:54;;;;;;;14.25;11.80;;;21.20;57.10;;;;;;5051944;28;20151;-83
2021/05/20 10:15:23;;;;;;;18.13;14.38;;;21.50;56.00;;;;;;5054926;28;20485;-81
2021/05/20 10:17:49;;;;;;;18.58;12.70;;;21.60;54.80;;;;;;5056527;28;20097;-81
2021/05/20 10:20:19;;;;;;;16.15;13.52;;;21.60;55.00;;;;;;5048620;28;20131;-82
2021/05/20 10:22:45;;;;;;;18.00;15.43;;;21.50;55.00;;;;;;5066402;28;20502;-81
2021/05/20 10:25:13;;;;;;;16.67;13.88;;;21.50;54.50;;;;;;5062402;28;20111;-81
2021/05/20 10:27:40;;;;;;;19.15;15.02;;;21.50;54.70;;;;;;5065837;28;20123;-81
2021/05/20 10:30:09;;;;;;;15.75;12.35;;;21.60;54.50;;;;;;5054031;28;20025;-82
2021/05/20 10:32:37;;;;;;;13.48;11.57;;;21.70;54.40;;;;;;5034925;28;20086;-81
2021/05/20 10:35:20;;;;;;;17.30;13.35;;;21.90;54.30;;;;;;5057794;28;20048;-81
2021/05/20 10:37:55;;;;;;;16.17;13.13;;;22.10;54.40;;;;;;5092189;28;20406;-80
2021/05/20 10:40:30;;;;;;;15.02;12.63;;;22.40;53.60;;;;;;5070630;28;20051;-79
2021/05/20 10:43:05;;;;;;;18.25;14.10;;;22.80;52.80;;;;;;5050591;28;20082;-78
2021/05/20 10:45:31;;;;;;;15.02;12.80;;;22.90;50.20;;;;;;5062082;28;20060;-79
2021/05/20 10:48:03;;;;;;;17.05;13.73;;;23.00;51.40;;;;;;5044057;28;20036;-79
2021/05/20 10:50:54;;;;;;;16.80;13.30;;;23.10;50.90;;;;;;5048550;28;20029;-79
2021/05/20 10:53:37;;;;;;;14.20;11.90;;;23.20;50.80;;;;;;5057344;28;20107;-79
2021/05/20 10:56:15;;;;;;;17.50;14.07;;;23.30;49.80;;;;;;5059265;28;20029;-79
2021/05/20 10:58:44;;;;;;;15.25;13.15;;;23.10;49.20;;;;;;5052262;28;20033;-80
2021/05/20 11:01:25;;;;;;;15.60;11.43;;;23.10;50.00;;;;;;5065121;28;20037;-79
2021/05/20 11:03:55;;;;;;;14.02;12.52;;;23.20;50.70;;;;;;5059192;28;20025;-82
2021/05/20 11:06:23;;;;;;;13.65;11.93;;;23.40;50.50;;;;;;5049212;28;20051;-83
2021/05/20 11:08:48;;;;;;;16.35;13.57;;;23.70;50.30;;;;;;5052310;28;20104;-83
2021/05/20 11:11:23;;;;;;;15.48;13.88;;;23.90;48.30;;;;;;5058661;28;20557;-80
2021/05/20 11:13:49;;;;;;;15.70;12.15;;;23.80;49.90;;;;;;5061255;28;20053;-81
2021/05/20 11:16:29;;;;;;;15.88;14.07;;;24.10;50.30;;;;;;5060878;28;20474;-80
2021/05/20 11:19:21;;;;;;;17.70;15.68;;;24.20;49.20;;;;;;5063860;28;20024;-81
2021/05/20 11:22:00;;;;;;;19.00;15.93;;;24.10;47.30;;;;;;5062180;28;20024;-82
2021/05/20 11:24:43;;;;;;;19.77;17.02;;;23.70;47.40;;;;;;5095583;28;20324;-82
2021/05/20 11:27:18;;;;;;;18.67;14.75;;;23.20;48.10;;;;;;5050546;28;20041;-82
2021/05/20 11:29:48;;;;;;;18.88;16.75;;;23.20;50.00;;;;;;5064290;28;20021;-83
2021/05/20 11:37:37;;;;;;;23.58;18.08;;;23.20;49.20;;;;;;5057847;28;20044;-81
2021/05/20 11:40:05;;;;;;;19.98;17.25;;;23.10;49.00;;;;;;5066981;28;20028;-81
2021/05/20 11:42:32;;;;;;;18.92;15.75;;;22.90;49.60;;;;;;5062046;28;20056;-80
2021/05/20 11:45:04;;;;;;;27.40;21.38;;;22.80;49.50;;;;;;5056990;28;20060;-81
2021/05/20 11:47:30;;;;;;;24.27;18.35;;;22.80;48.70;;;;;;5065871;28;20032;-81
2021/05/20 11:49:57;;;;;;;21.50;17.23;;;22.90;49.30;;;;;;5059674;28;20116;-82
2021/05/20 11:52:25;;;;;;;20.38;16.02;;;23.10;48.10;;;;;;5063800;28;20094;-83
2021/05/20 11:54:53;;;;;;;17.77;13.35;;;23.40;48.30;;;;;;5065162;28;20111;-81
2021/05/20 11:57:23;;;;;;;17.25;13.75;;;23.60;47.80;;;;;;5059143;28;20471;-82
2021/05/20 11:59:53;;;;;;;20.67;15.88;;;23.80;46.40;;;;;;5065749;28;20119;-81
2021/05/20 12:02:18;;;;;;;21.67;16.98;;;24.00;44.70;;;;;;5090034;28;20089;-81
2021/05/20 12:04:45;;;;;;;23.02;17.70;;;24.00;44.70;;;;;;5062972;28;20020;-81
2021/05/20 12:07:28;;;;;;;21.92;17.77;;;23.90;44.70;;;;;;5073339;28;20440;-81
2021/05/20 12:10:05;;;;;;;23.48;18.23;;;23.80;45.20;;;;;;5067229;28;20388;-81
2021/05/20 12:12:31;;;;;;;20.23;16.15;;;23.90;45.00;;;;;;5062441;28;20045;-82
2021/05/20 12:14:56;;;;;;;29.20;20.88;;;23.80;45.30;;;;;;5038413;28;20455;-82
2021/05/20 12:17:24;;;;;;;21.52;18.58;;;23.80;44.50;;;;;;5078967;28;20538;-82
2021/05/20 12:19:52;;;;;;;19.80;16.88;;;23.60;45.10;;;;;;5070024;28;20036;-81
2021/05/20 12:22:25;;;;;;;19.42;15.73;;;23.60;45.60;;;;;;5060073;28;20419;-82
2021/05/20 12:24:54;;;;;;;20.25;15.82;;;23.50;45.90;;;;;;5066842;28;20124;-81
2021/05/20 12:27:21;;;;;;;20.95;16.52;;;23.50;46.10;;;;;;5063615;28;20085;-81
2021/05/20 12:29:52;;;;;;;19.92;16.20;;;23.40;46.20;;;;;;5059043;28;20138;-80
2021/05/20 12:32:25;;;;;;;23.58;18.20;;;23.20;45.80;;;;;;5059740;28;20025;-80
2021/05/20 12:35:09;;;;;;;;;;;23.00;46.10;;;;;;5065173;28;20036;-79
2021/05/20 12:37:41;;;;;;;;;;;23.00;45.80;;;;;;5058081;28;19965;-79
2021/05/20 12:40:44;;;;;;;18.05;15.23;;;22.70;47.20;;;;;;5060669;28;19946;-78
2021/05/20 12:43:30;;;;;;;21.27;17.45;;;22.30;48.00;;;;;;5063894;28;20028;-78
2021/05/20 12:46:26;;;;;;;22.90;19.27;;;22.10;47.70;;;;;;5058689;28;20032;-77
2021/05/20 12:48:59;;;;;;;24.45;19.15;;;21.70;49.10;;;;;;5052868;28;20076;-78
2021/05/20 12:51:26;;;;;;;;;;;21.40;49.80;;;;;;5052063;28;20052;-77